ROMMA est une association bénévole à but non lucratif. Votre soutien est indispensable : ADHERER à ROMMA ou FAIRE un DON

Crempigny-Bonneguête - (74, Haute-Savoie)

Albanais-Montagne des Princes (500 m)   Longitude: 05° 54' 5" E   Latitude: 45° 57' 0" N Station partenaire n°10
 

Détail journalier du     <<     >>

Température Precipitation Humidité Pression Vent Dir Rafale Dir. rafale Ensol. 20 cm au dessus du sol
Heure (°C) (mm) (%) (hPa) (km/h) (km/h) (min) (°C)
01:00 3.407910217NNO21N02.2
02:00 2.908310215NNO15NNO01.7
03:00 3.008410215NNO16NE02.2
04:00 3.108410217NNO18NNE02.2
05:00 3.108510216NNO16NNE02.2
06:00 2.808610217NNO21NE01.7
07:00 2.608710216NNO13NO01.7
08:00 2.308910214NE15NE01.1
09:00 4.408310228NNE23N154.4
10:00 5.6080102113N34NE356.7
11:00 7.2072102113NNE27N608.9
12:00 9.0067102112NNE27NNE6011.1
13:00 10.906010208NNE19N6012.8
14:00 13.306110197E21NE6015.0
15:00 14.605210198E18ENE6016.1
16:00 15.604710178ENE19NE6016.7
17:00 16.304310176NE18NE6018.3
18:00 16.104210166NE15ENE6017.2
19:00 15.404610165NNE15NNO6016.1
20:00 11.805310174ONO11NE010.6
21:00 10.405610174NO8NO08.9
22:00 9.505810175NO10ONO08.3
23:00 10.306410183N8NNE07.8
minuit 9.407010182N6N07.8

Graphique du 15-04-2019

 

Serveur OMMA